Maxton, North Carolina
Current Conditions -  °F | °C
As of 10:52 PM on Sunday 23 Nov 2014 (Local Time) from KMEB Reporting Station
Light Rain Light Rain  
Wind Chill: 65°   Ceiling: 12000
Heat Index: 65°   Visibility: 10mi
Dew Point: 64°   Wind: 12mph
Humidity: 97%   Direction: 160°SSE
Pressure: 29.79"   Gusts: NA
Location:  34.74°N, 79.35°W
Report Text: KMEB 240352Z AUTO 16010KT 10SM -RA SCT100 BKN120 18/18 A2979 RMK AO2 PRESFR SLP086 P0031 T01830178
Loading
Personal Weather Stations






























Interactive Weather Map New forecast layout! Learn more

10-Day Weather Forecast

Advertisements
Track Severe Weather on mobile